createdAt,value
2023-01-06T00:00:08.525Z,0
2023-01-06T00:02:45.220Z,0
2023-01-06T00:03:25.740Z,0
2023-01-06T00:04:06.267Z,0
2023-01-06T00:04:46.893Z,0
2023-01-06T00:05:28.260Z,0
2023-01-06T00:06:08.773Z,0
2023-01-06T00:06:49.291Z,0
2023-01-06T00:07:29.808Z,0
2023-01-06T00:14:15.106Z,0
2023-01-06T00:14:55.618Z,0
2023-01-06T00:15:36.167Z,0
2023-01-06T00:16:16.699Z,0
2023-01-06T00:16:57.217Z,0
2023-01-06T00:17:37.718Z,0
2023-01-06T00:18:18.780Z,0
2023-01-06T00:22:24.853Z,0
2023-01-06T00:23:05.379Z,0
2023-01-06T00:23:45.897Z,0
2023-01-06T00:24:26.400Z,0
2023-01-06T00:25:06.947Z,0
2023-01-06T00:25:47.495Z,0
2023-01-06T00:26:28.064Z,0
2023-01-06T00:27:08.591Z,0
2023-01-06T00:27:49.111Z,0
2023-01-06T00:28:29.612Z,0
2023-01-06T00:29:10.183Z,0
2023-01-06T00:35:15.144Z,0
2023-01-06T00:35:55.670Z,0
2023-01-06T00:36:36.195Z,0
2023-01-06T00:37:16.739Z,0
2023-01-06T00:37:57.293Z,0
2023-01-06T00:38:37.847Z,0
2023-01-06T00:39:18.390Z,0
2023-01-06T00:39:58.956Z,0
2023-01-06T00:40:39.467Z,0
2023-01-06T00:41:19.995Z,0
2023-01-06T00:47:24.913Z,0
2023-01-06T00:48:05.453Z,0
2023-01-06T00:50:18.605Z,0
2023-01-06T00:50:59.148Z,0
2023-01-06T00:51:39.670Z,0
2023-01-06T00:52:20.266Z,0
2023-01-06T00:53:00.802Z,0
2023-01-06T00:53:42.056Z,0
2023-01-06T00:54:22.616Z,0
2023-01-06T00:55:03.163Z,0
2023-01-06T01:01:48.746Z,0
2023-01-06T01:02:29.227Z,0
2023-01-06T01:03:09.751Z,0
2023-01-06T01:03:50.232Z,0
2023-01-06T01:04:30.794Z,0
2023-01-06T01:05:11.329Z,0
2023-01-06T01:05:51.858Z,0
2023-01-06T01:06:32.382Z,0
2023-01-06T01:07:12.964Z,0
2023-01-06T01:07:53.466Z,0
2023-01-06T01:13:58.423Z,0
2023-01-06T01:14:38.941Z,0
2023-01-06T01:15:19.638Z,0
2023-01-06T01:16:00.167Z,0
2023-01-06T01:16:40.604Z,0
2023-01-06T01:17:21.137Z,0
2023-01-06T01:18:01.677Z,0
2023-01-06T01:18:42.296Z,0
2023-01-06T01:19:22.795Z,0
2023-01-06T01:20:03.344Z,0
2023-01-06T01:25:28.677Z,0
2023-01-06T01:26:09.230Z,0
2023-01-06T01:26:49.806Z,0
2023-01-06T01:27:31.247Z,0
2023-01-06T01:28:11.811Z,0
2023-01-06T01:28:52.377Z,0
2023-01-06T01:29:32.874Z,0
2023-01-06T01:30:13.415Z,0
2023-01-06T01:36:18.454Z,0
2023-01-06T01:36:58.994Z,0
2023-01-06T01:37:40.170Z,0
2023-01-06T01:38:20.671Z,0
2023-01-06T01:39:01.214Z,0
2023-01-06T01:39:41.751Z,0
2023-01-06T01:40:22.329Z,0
2023-01-06T01:41:02.925Z,0
2023-01-06T01:41:44.039Z,0
2023-01-06T01:47:08.237Z,0
2023-01-06T01:47:48.817Z,0
2023-01-06T01:48:29.337Z,0
2023-01-06T01:49:09.865Z,0
2023-01-06T01:49:50.425Z,0
2023-01-06T01:50:31.002Z,0
2023-01-06T01:51:11.506Z,0
2023-01-06T01:51:52.025Z,0
2023-01-06T01:52:32.522Z,0
2023-01-06T01:53:13.047Z,0
2023-01-06T01:53:53.535Z,0
2023-01-06T01:59:18.512Z,0
2023-01-06T01:59:59.067Z,0
2023-01-06T02:00:39.591Z,0
2023-01-06T02:01:20.234Z,0
2023-01-06T02:02:00.934Z,0
2023-01-06T02:02:41.260Z,0
2023-01-06T02:03:21.791Z,0
2023-01-06T02:04:02.197Z,0
2023-01-06T02:04:42.736Z,0
2023-01-06T02:05:23.286Z,0
2023-01-06T02:12:08.531Z,0
2023-01-06T02:12:49.075Z,0
2023-01-06T02:13:29.594Z,0
2023-01-06T02:14:10.149Z,0
2023-01-06T02:14:50.675Z,0
2023-01-06T02:15:31.181Z,0
2023-01-06T02:16:11.798Z,0
2023-01-06T02:16:52.255Z,0
2023-01-06T02:17:32.906Z,0
2023-01-06T02:18:13.310Z,0
2023-01-06T02:23:38.392Z,0
2023-01-06T02:24:18.941Z,0
2023-01-06T02:24:59.489Z,0
2023-01-06T02:25:40.067Z,0
2023-01-06T02:26:20.581Z,0
2023-01-06T02:27:01.089Z,0
2023-01-06T02:27:41.599Z,0
2023-01-06T02:28:22.129Z,0
2023-01-06T02:29:02.709Z,0
2023-01-06T02:29:43.231Z,0
2023-01-06T02:36:28.750Z,0
2023-01-06T02:37:09.264Z,0
2023-01-06T02:37:49.788Z,0
2023-01-06T02:38:30.304Z,0
2023-01-06T02:39:10.835Z,0
2023-01-06T02:39:51.359Z,0
2023-01-06T02:40:32.570Z,0
2023-01-06T02:41:13.107Z,0
2023-01-06T02:41:53.617Z,0
2023-01-06T02:47:18.695Z,0
2023-01-06T02:47:59.245Z,0
2023-01-06T02:48:40.169Z,0
2023-01-06T02:49:20.333Z,0
2023-01-06T02:50:00.887Z,0
2023-01-06T02:50:41.429Z,0
2023-01-06T02:51:21.946Z,0
2023-01-06T02:52:02.439Z,0
2023-01-06T02:52:43.053Z,0
2023-01-06T02:53:23.530Z,0
2023-01-06T02:59:28.288Z,0
2023-01-06T03:00:08.804Z,0
2023-01-06T03:00:49.299Z,0
2023-01-06T03:01:29.956Z,0
2023-01-06T03:02:10.591Z,0
2023-01-06T03:02:50.921Z,0
2023-01-06T03:03:31.442Z,0
2023-01-06T03:04:12.175Z,0
2023-01-06T03:04:52.556Z,0
2023-01-06T03:05:33.034Z,0
2023-01-06T03:06:13.602Z,0
2023-01-06T03:11:38.595Z,0
2023-01-06T03:12:19.073Z,0
2023-01-06T03:12:59.629Z,0
2023-01-06T03:13:40.174Z,0
2023-01-06T03:14:20.689Z,0
2023-01-06T03:15:01.225Z,0
2023-01-06T03:15:41.768Z,0
2023-01-06T03:16:22.365Z,0
2023-01-06T03:17:02.837Z,0
2023-01-06T03:17:43.382Z,0
2023-01-06T03:24:28.776Z,0
2023-01-06T03:25:09.342Z,0
2023-01-06T03:25:49.887Z,0
2023-01-06T03:26:30.429Z,0
2023-01-06T03:27:10.971Z,0
2023-01-06T03:27:51.519Z,0
2023-01-06T03:28:32.073Z,0
2023-01-06T03:29:12.625Z,0
2023-01-06T03:29:53.132Z,0
2023-01-06T03:36:38.533Z,0
2023-01-06T03:37:19.043Z,0
2023-01-06T03:37:59.584Z,0
2023-01-06T03:38:40.129Z,0
2023-01-06T03:39:20.654Z,0
2023-01-06T03:40:01.240Z,0
2023-01-06T03:40:41.748Z,0
2023-01-06T03:41:22.282Z,0
2023-01-06T03:42:02.802Z,0
2023-01-06T03:42:43.332Z,0
2023-01-06T03:48:08.276Z,0
2023-01-06T03:50:21.440Z,0
2023-01-06T03:51:01.834Z,0
2023-01-06T03:51:42.406Z,0
2023-01-06T03:52:22.946Z,0
2023-01-06T03:53:03.494Z,0
2023-01-06T03:53:44.740Z,0
2023-01-06T03:54:25.292Z,0
2023-01-06T03:55:05.834Z,0
2023-01-06T03:55:46.346Z,0
2023-01-06T04:01:51.291Z,0
2023-01-06T04:02:31.774Z,0
2023-01-06T04:03:12.269Z,0
2023-01-06T04:03:52.848Z,0
2023-01-06T04:04:33.410Z,0
2023-01-06T04:05:13.843Z,0
2023-01-06T04:05:54.471Z,0
2023-01-06T04:06:34.875Z,0
2023-01-06T04:07:15.411Z,0
2023-01-06T04:07:55.940Z,0
2023-01-06T04:08:36.467Z,0
2023-01-06T04:14:41.301Z,0
2023-01-06T04:15:21.858Z,0
2023-01-06T04:16:02.419Z,0
2023-01-06T04:16:42.956Z,0
2023-01-06T04:17:23.525Z,0
2023-01-06T04:18:04.062Z,0
2023-01-06T04:20:16.916Z,0
2023-01-06T04:20:57.570Z,0
2023-01-06T04:21:38.016Z,0
2023-01-06T04:22:18.555Z,0
2023-01-06T04:22:59.108Z,0
2023-01-06T04:23:39.655Z,0
2023-01-06T04:24:20.192Z,0
2023-01-06T04:25:01.623Z,0
2023-01-06T04:28:26.579Z,0
2023-01-06T04:29:07.105Z,0
2023-01-06T04:29:47.671Z,0
2023-01-06T04:30:28.842Z,0
2023-01-06T04:31:09.364Z,0
2023-01-06T04:31:49.942Z,0
2023-01-06T04:32:30.394Z,0
2023-01-06T04:33:11.008Z,0
2023-01-06T04:35:25.273Z,0
2023-01-06T04:36:05.949Z,0
2023-01-06T04:36:46.412Z,0
2023-01-06T04:37:26.906Z,0
2023-01-06T04:38:07.459Z,0
2023-01-06T04:38:47.957Z,0
2023-01-06T04:39:28.496Z,0
2023-01-06T04:40:09.028Z,0
2023-01-06T04:40:49.578Z,0
2023-01-06T04:41:30.127Z,0
2023-01-06T04:48:15.440Z,0
2023-01-06T04:48:55.978Z,0
2023-01-06T04:51:09.352Z,0
2023-01-06T04:51:49.800Z,0
2023-01-06T04:52:30.350Z,0
2023-01-06T04:53:10.888Z,0
2023-01-06T04:53:51.440Z,0
2023-01-06T04:54:32.004Z,0
2023-01-06T04:55:12.526Z,0
2023-01-06T04:55:53.048Z,0
2023-01-06T04:56:33.559Z,0
2023-01-06T04:57:14.090Z,0
2023-01-06T05:03:17.690Z,0
2023-01-06T05:03:58.239Z,0
2023-01-06T05:04:47.252Z,0
2023-01-06T05:05:19.313Z,0
2023-01-06T05:05:59.839Z,0
2023-01-06T05:06:40.497Z,0
2023-01-06T05:07:20.901Z,0
2023-01-06T05:08:01.442Z,0
2023-01-06T05:10:15.896Z,0
2023-01-06T05:11:00.788Z,0
2023-01-06T05:11:41.291Z,0
2023-01-06T05:12:23.581Z,0
2023-01-06T05:13:08.791Z,0
2023-01-06T05:15:46.528Z,0
2023-01-06T05:16:28.340Z,0
2023-01-06T05:17:08.811Z,0
2023-01-06T05:17:49.373Z,0
2023-01-06T05:20:02.613Z,0
2023-01-06T05:20:43.126Z,0
2023-01-06T05:21:23.673Z,0
2023-01-06T05:22:04.325Z,0
2023-01-06T05:22:44.723Z,0
2023-01-06T05:23:25.268Z,0
2023-01-06T05:24:05.809Z,0
2023-01-06T05:24:46.347Z,0
2023-01-06T05:25:26.872Z,0
2023-01-06T05:26:07.439Z,0
2023-01-06T05:32:53.321Z,0
2023-01-06T05:33:33.875Z,0
2023-01-06T05:34:14.400Z,0
2023-01-06T05:34:54.889Z,0
2023-01-06T05:35:35.422Z,0
2023-01-06T05:36:16.046Z,0
2023-01-06T05:36:56.577Z,0
2023-01-06T05:37:37.217Z,0
2023-01-06T05:42:22.312Z,0
2023-01-06T05:43:02.832Z,0
2023-01-06T05:43:43.386Z,0
2023-01-06T05:44:23.918Z,0
2023-01-06T05:45:04.494Z,0
2023-01-06T05:45:45.035Z,0
2023-01-06T05:46:25.553Z,0
2023-01-06T05:47:06.068Z,0
2023-01-06T05:47:46.589Z,0
2023-01-06T05:48:27.123Z,0
2023-01-06T05:49:07.639Z,0
2023-01-06T05:55:13.355Z,0
2023-01-06T05:55:53.863Z,0
2023-01-06T05:56:34.363Z,0
2023-01-06T05:57:14.895Z,0
2023-01-06T05:57:55.413Z,0
2023-01-06T05:58:35.943Z,0
2023-01-06T05:59:16.457Z,0
2023-01-06T05:59:56.980Z,0
2023-01-06T06:00:37.498Z,0
2023-01-06T06:06:02.687Z,0
2023-01-06T06:06:43.221Z,0
2023-01-06T06:07:23.750Z,0
2023-01-06T06:08:04.264Z,0
2023-01-06T06:08:44.944Z,0
2023-01-06T06:09:25.341Z,0
2023-01-06T06:10:05.892Z,0
2023-01-06T06:10:46.437Z,0
2023-01-06T06:11:26.979Z,0
2023-01-06T06:12:07.510Z,0
2023-01-06T06:19:44.835Z,0
2023-01-06T06:20:25.371Z,0
2023-01-06T06:21:05.911Z,0
2023-01-06T06:21:46.422Z,0
2023-01-06T06:22:26.957Z,0
2023-01-06T06:23:07.485Z,0
2023-01-06T06:23:47.995Z,0
2023-01-06T06:24:29.631Z,0
2023-01-06T06:30:05.248Z,0
2023-01-06T06:30:48.156Z,0
2023-01-06T06:31:28.900Z,0
2023-01-06T06:32:09.451Z,0
2023-01-06T06:34:23.676Z,0
2023-01-06T06:35:04.293Z,0
2023-01-06T06:35:45.643Z,0
2023-01-06T06:36:28.704Z,0
2023-01-06T06:38:42.444Z,0
2023-01-06T06:39:24.463Z,0
2023-01-06T06:40:05.809Z,0
2023-01-06T06:40:46.255Z,0
2023-01-06T06:43:20.733Z,0
2023-01-06T06:44:01.231Z,0
2023-01-06T06:44:43.770Z,0
2023-01-06T06:45:24.274Z,0
2023-01-06T06:47:37.980Z,0
2023-01-06T06:48:18.498Z,4
2023-01-06T06:48:59.043Z,4
2023-01-06T06:49:39.563Z,4
2023-01-06T06:50:20.050Z,0
2023-01-06T06:51:01.613Z,0
2023-01-06T06:51:42.114Z,4
2023-01-06T06:55:01.149Z,8
2023-01-06T06:55:41.802Z,4
2023-01-06T06:56:22.230Z,8
2023-01-06T06:57:02.691Z,8
2023-01-06T06:57:43.257Z,8
2023-01-06T06:58:23.809Z,8
2023-01-06T06:59:04.314Z,12
2023-01-06T06:59:44.932Z,8
2023-01-06T07:00:25.882Z,12
2023-01-06T07:07:11.258Z,36
2023-01-06T07:07:51.815Z,40
2023-01-06T07:08:32.371Z,44
2023-01-06T07:10:45.555Z,52
2023-01-06T07:11:25.957Z,56
2023-01-06T07:12:06.489Z,60
2023-01-06T07:12:47.038Z,68
2023-01-06T07:13:27.590Z,68
2023-01-06T07:14:08.159Z,76
2023-01-06T07:14:48.687Z,80
2023-01-06T07:15:29.238Z,84
2023-01-06T07:16:09.833Z,88
2023-01-06T07:16:50.344Z,92
2023-01-06T07:22:15.366Z,164
2023-01-06T07:22:55.915Z,176
2023-01-06T07:28:08.114Z,264
2023-01-06T07:28:48.585Z,276
2023-01-06T07:29:29.126Z,288
2023-01-06T07:30:09.674Z,312
2023-01-06T07:30:50.228Z,340
2023-01-06T07:31:30.750Z,360
2023-01-06T07:32:11.257Z,376
2023-01-06T07:32:51.786Z,404
2023-01-06T07:33:32.327Z,420
2023-01-06T07:34:12.835Z,448
2023-01-06T07:38:58.309Z,656
2023-01-06T07:39:38.831Z,688
2023-01-06T07:40:20.154Z,728
2023-01-06T07:41:00.674Z,768
2023-01-06T07:41:42.039Z,792
2023-01-06T07:42:22.561Z,784
2023-01-06T07:43:03.077Z,772
2023-01-06T07:48:23.690Z,876
2023-01-06T07:49:04.186Z,980
2023-01-06T07:49:44.728Z,1156
2023-01-06T07:50:26.420Z,1368
2023-01-06T07:51:05.762Z,1460
2023-01-06T07:51:46.288Z,1456
2023-01-06T07:53:59.340Z,1096
2023-01-06T07:54:39.885Z,1048
2023-01-06T07:55:21.357Z,1096
2023-01-06T07:56:02.429Z,1268
2023-01-06T07:58:17.646Z,1992
2023-01-06T07:58:59.112Z,1864
2023-01-06T07:59:39.499Z,1564
2023-01-06T08:00:20.914Z,1364
2023-01-06T08:02:34.285Z,1052
2023-01-06T08:03:14.777Z,1132
2023-01-06T08:03:55.255Z,1216
2023-01-06T08:04:35.778Z,1244
2023-01-06T08:05:16.372Z,1276
2023-01-06T08:05:57.342Z,1308
2023-01-06T08:08:26.202Z,1436
2023-01-06T08:09:07.365Z,1568
2023-01-06T08:09:47.878Z,1708
2023-01-06T08:10:29.141Z,1828
2023-01-06T08:11:09.668Z,1920
2023-01-06T08:13:22.960Z,2004
2023-01-06T08:14:03.587Z,1880
2023-01-06T08:14:45.699Z,1800
2023-01-06T08:15:26.248Z,1844
2023-01-06T08:16:06.853Z,1916
2023-01-06T08:18:07.003Z,2108
2023-01-06T08:18:48.293Z,2160
2023-01-06T08:19:29.682Z,2192
2023-01-06T08:20:11.055Z,2168
2023-01-06T08:20:51.600Z,2084
2023-01-06T08:23:22.930Z,2044
2023-01-06T08:24:03.500Z,2132
2023-01-06T08:24:44.873Z,2220
2023-01-06T08:25:25.409Z,2312
2023-01-06T08:27:52.306Z,2428
2023-01-06T08:30:51.075Z,1892
2023-01-06T08:31:36.686Z,1896
2023-01-06T08:32:18.075Z,2132
2023-01-06T08:32:59.128Z,2480
2023-01-06T08:33:42.378Z,2772
2023-01-06T08:34:22.892Z,2968
2023-01-06T08:35:05.098Z,3016
2023-01-06T08:36:30.697Z,2664
2023-01-06T08:37:12.135Z,2436
2023-01-06T08:37:54.124Z,2252
2023-01-06T08:38:40.127Z,2124
2023-01-06T08:40:58.182Z,2212
2023-01-06T08:41:39.591Z,1948
2023-01-06T08:42:20.137Z,1684
2023-01-06T08:43:00.707Z,1604
2023-01-06T08:43:41.280Z,1688
2023-01-06T08:44:21.811Z,1744
2023-01-06T08:45:02.348Z,1692
2023-01-06T08:45:42.871Z,1804
2023-01-06T08:50:26.531Z,2028
2023-01-06T08:51:06.116Z,2056
2023-01-06T08:51:47.682Z,2108
2023-01-06T08:52:31.106Z,2172
2023-01-06T08:53:12.643Z,2348
2023-01-06T08:53:55.879Z,2524
2023-01-06T08:54:36.369Z,2644
2023-01-06T08:55:21.185Z,2796
2023-01-06T08:57:42.304Z,2864
2023-01-06T08:58:22.827Z,2860
2023-01-06T08:59:03.982Z,2828
2023-01-06T08:59:44.478Z,2816
2023-01-06T09:00:25.208Z,2768
2023-01-06T09:01:05.572Z,2712
2023-01-06T09:01:46.302Z,2660
2023-01-06T09:02:26.637Z,2708
2023-01-06T09:03:07.134Z,2824
2023-01-06T09:09:52.522Z,2712
2023-01-06T09:10:33.036Z,2632
2023-01-06T09:12:45.850Z,2516
2023-01-06T09:13:26.384Z,2476
2023-01-06T09:14:06.937Z,2432
2023-01-06T09:14:48.190Z,2460
2023-01-06T09:17:01.908Z,2800
2023-01-06T09:17:42.253Z,2616
2023-01-06T09:18:22.762Z,2428
2023-01-06T09:19:03.290Z,2392
2023-01-06T09:19:43.930Z,2492
2023-01-06T09:20:24.518Z,2688
2023-01-06T09:21:04.992Z,2640
2023-01-06T09:21:45.515Z,2476
2023-01-06T09:23:58.547Z,2748
2023-01-06T09:24:39.096Z,2784
2023-01-06T09:25:19.776Z,2636
2023-01-06T09:26:00.306Z,2664
2023-01-06T09:28:19.943Z,2632
2023-01-06T09:29:00.521Z,2708
2023-01-06T09:29:41.062Z,2832
2023-01-06T09:30:21.680Z,2860
2023-01-06T09:31:02.252Z,2772
2023-01-06T09:31:42.695Z,2700
2023-01-06T09:32:23.363Z,2636
2023-01-06T09:34:56.642Z,2644
2023-01-06T09:35:37.165Z,2676
2023-01-06T09:36:17.728Z,2680
2023-01-06T09:36:58.239Z,2752
2023-01-06T09:37:38.800Z,2848
2023-01-06T09:38:19.325Z,2980
2023-01-06T09:38:59.843Z,3220
2023-01-06T09:39:40.382Z,3396
2023-01-06T09:40:20.927Z,3504
2023-01-06T09:41:01.454Z,3724
2023-01-06T09:44:56.534Z,5076
2023-01-06T09:45:37.059Z,4840
2023-01-06T09:46:17.756Z,4516
2023-01-06T09:46:58.409Z,4236
2023-01-06T09:47:39.065Z,3976
2023-01-06T09:48:19.561Z,3584
2023-01-06T09:49:00.120Z,3284
2023-01-06T09:49:41.611Z,3244
2023-01-06T09:54:20.387Z,3716
2023-01-06T09:55:03.374Z,3944
2023-01-06T09:55:45.254Z,4140
2023-01-06T09:56:27.268Z,4268
2023-01-06T09:58:46.962Z,4200
2023-01-06T09:59:27.456Z,4296
2023-01-06T10:00:08.008Z,4440
2023-01-06T10:00:48.588Z,4664
2023-01-06T10:01:29.409Z,4964
2023-01-06T10:02:09.907Z,5156
2023-01-06T10:02:50.582Z,5304
2023-01-06T10:03:31.153Z,5424
2023-01-06T10:04:11.748Z,5528
2023-01-06T10:10:28.426Z,6380
2023-01-06T10:11:08.941Z,5996
2023-01-06T10:11:49.493Z,5888
2023-01-06T10:12:30.030Z,5908
2023-01-06T10:13:10.543Z,5792
2023-01-06T10:15:38.936Z,5508
2023-01-06T10:16:19.648Z,5392
2023-01-06T10:17:00.133Z,5336
2023-01-06T10:17:41.556Z,5160
2023-01-06T10:18:22.204Z,5020
2023-01-06T10:20:55.184Z,4460
2023-01-06T10:21:35.710Z,4532
2023-01-06T10:22:16.200Z,4632
2023-01-06T10:22:56.728Z,4636
2023-01-06T10:25:27.897Z,4532
2023-01-06T10:26:08.498Z,4412
2023-01-06T10:26:49.649Z,4156
2023-01-06T10:27:30.210Z,4012
2023-01-06T10:28:10.925Z,3876
2023-01-06T10:28:51.467Z,3728
2023-01-06T10:29:31.981Z,3632
2023-01-06T10:30:12.740Z,3620
2023-01-06T10:36:14.470Z,3832
2023-01-06T10:36:54.931Z,3888
2023-01-06T10:37:35.512Z,3892
2023-01-06T10:38:16.023Z,3936
2023-01-06T10:38:56.572Z,4040
2023-01-06T10:39:37.110Z,4140
2023-01-06T10:40:17.642Z,4576
2023-01-06T10:40:58.169Z,5364
2023-01-06T10:41:38.756Z,5992
2023-01-06T10:42:19.311Z,6864
2023-01-06T10:44:58.595Z,8284
2023-01-06T10:45:40.855Z,7876
2023-01-06T10:46:21.435Z,7952
2023-01-06T10:47:01.933Z,8196
2023-01-06T10:47:42.515Z,8468
2023-01-06T10:48:22.975Z,8628
2023-01-06T10:49:03.614Z,8096
2023-01-06T10:53:03.108Z,8456
2023-01-06T10:53:43.656Z,8408
2023-01-06T10:54:24.210Z,8520
2023-01-06T10:55:04.786Z,7916
2023-01-06T10:55:45.308Z,8028
2023-01-06T10:56:25.863Z,7904
2023-01-06T10:57:06.381Z,7900
2023-01-06T10:57:46.920Z,7400
2023-01-06T10:58:27.463Z,6680
2023-01-06T10:59:07.986Z,6528
2023-01-06T11:04:32.986Z,8384
2023-01-06T11:05:13.400Z,9220
2023-01-06T11:05:53.899Z,9472
2023-01-06T11:06:35.338Z,9484
2023-01-06T11:07:15.858Z,9472
2023-01-06T11:07:56.392Z,9724
2023-01-06T11:08:36.900Z,9608
2023-01-06T11:09:17.449Z,9940
2023-01-06T11:09:57.997Z,9768
2023-01-06T11:16:39.830Z,10148
2023-01-06T11:17:20.346Z,9736
2023-01-06T11:18:00.845Z,9536
2023-01-06T11:18:41.387Z,9372
2023-01-06T11:19:21.946Z,9644
2023-01-06T11:20:02.643Z,10116
2023-01-06T11:20:43.037Z,10080
2023-01-06T11:21:23.581Z,9856
2023-01-06T11:22:04.143Z,9936
2023-01-06T11:24:17.208Z,9536
2023-01-06T11:24:57.722Z,9912
2023-01-06T11:25:39.256Z,10016
2023-01-06T11:26:19.831Z,9540
2023-01-06T11:28:33.413Z,10548
2023-01-06T11:29:13.932Z,10336
2023-01-06T11:29:54.467Z,9988
2023-01-06T11:30:35.106Z,9832
2023-01-06T11:31:15.642Z,9980
2023-01-06T11:31:56.142Z,10152
2023-01-06T11:32:36.655Z,10304
2023-01-06T11:33:17.210Z,10376
2023-01-06T11:33:57.701Z,10100
2023-01-06T11:34:38.227Z,9340
2023-01-06T11:41:23.516Z,9400
2023-01-06T11:42:04.170Z,9368
2023-01-06T11:42:44.623Z,8640
2023-01-06T11:44:57.684Z,8944
2023-01-06T11:45:38.270Z,9084
2023-01-06T11:46:18.788Z,9316
2023-01-06T11:46:59.286Z,9268
2023-01-06T11:47:39.812Z,9360
2023-01-06T11:48:20.378Z,8916
2023-01-06T11:49:00.882Z,8576
2023-01-06T11:49:41.408Z,9044
2023-01-06T11:50:22.074Z,9288
2023-01-06T11:51:02.504Z,9376
2023-01-06T11:55:47.573Z,9880
2023-01-06T11:56:28.127Z,10392
2023-01-06T11:57:08.663Z,10088
2023-01-06T11:57:49.240Z,10108
2023-01-06T11:58:29.774Z,9492
2023-01-06T11:59:10.325Z,8852
2023-01-06T11:59:50.872Z,8348
2023-01-06T12:00:31.429Z,7904
2023-01-06T12:01:12.003Z,8024
2023-01-06T12:01:53.574Z,8208
2023-01-06T12:05:57.785Z,9456
2023-01-06T12:06:38.179Z,9496
2023-01-06T12:08:51.273Z,8552
2023-01-06T12:09:31.805Z,8652
2023-01-06T12:10:12.344Z,8784
2023-01-06T12:10:53.509Z,9244
2023-01-06T12:11:34.063Z,10244
2023-01-06T12:12:14.634Z,11404
2023-01-06T12:12:55.197Z,10792
2023-01-06T12:13:44.124Z,10172
2023-01-06T12:19:41.465Z,8608
2023-01-06T12:20:21.992Z,8264
2023-01-06T12:21:02.618Z,7696
2023-01-06T12:21:43.048Z,7892
2023-01-06T12:22:24.416Z,8264
2023-01-06T12:23:04.964Z,7140
2023-01-06T12:23:45.524Z,6292
2023-01-06T12:24:26.040Z,6040
2023-01-06T12:31:11.436Z,9092
2023-01-06T12:31:51.947Z,9612
2023-01-06T12:32:32.474Z,9632
2023-01-06T12:33:13.023Z,9636
2023-01-06T12:33:53.577Z,9860
2023-01-06T12:34:34.156Z,9884
2023-01-06T12:35:14.679Z,9668
2023-01-06T12:35:55.236Z,8840
2023-01-06T12:36:35.865Z,8508
2023-01-06T12:42:41.245Z,8776
2023-01-06T12:43:21.773Z,8720
2023-01-06T12:44:02.279Z,8612
2023-01-06T12:44:42.827Z,8412
2023-01-06T12:45:23.376Z,8692
2023-01-06T12:46:03.941Z,8700
2023-01-06T12:46:44.493Z,8376
2023-01-06T12:47:25.009Z,8188
2023-01-06T12:48:05.533Z,8340
2023-01-06T12:48:46.015Z,8336
2023-01-06T12:55:31.377Z,7144
2023-01-06T12:56:11.887Z,6352
2023-01-06T12:56:52.655Z,5764
2023-01-06T12:57:33.209Z,5528
2023-01-06T12:58:13.725Z,5208
2023-01-06T12:58:54.265Z,4876
2023-01-06T12:59:34.769Z,4660
2023-01-06T13:00:15.288Z,4176
2023-01-06T13:00:56.389Z,3856
2023-01-06T13:05:01.283Z,3272
2023-01-06T13:05:41.766Z,3528
2023-01-06T13:06:22.292Z,3672
2023-01-06T13:07:02.821Z,3588
2023-01-06T13:07:43.463Z,3460
2023-01-06T13:08:23.837Z,3596
2023-01-06T13:09:06.213Z,3792
2023-01-06T13:09:44.911Z,3944
2023-01-06T13:10:25.514Z,4008
2023-01-06T13:11:06.066Z,4008
2023-01-06T13:17:07.015Z,4304
2023-01-06T13:17:47.565Z,4252
2023-01-06T13:18:28.060Z,4280
2023-01-06T13:19:08.595Z,4432
2023-01-06T13:19:49.115Z,4400
2023-01-06T13:22:24.017Z,4616
2023-01-06T13:23:04.682Z,4672
2023-01-06T13:23:45.119Z,4452
2023-01-06T13:24:25.766Z,3932
2023-01-06T13:25:06.320Z,3676
2023-01-06T13:25:46.855Z,3444
2023-01-06T13:26:27.383Z,3384
2023-01-06T13:27:07.946Z,3244
2023-01-06T13:27:48.530Z,3236
2023-01-06T13:28:29.103Z,3260
2023-01-06T13:33:13.779Z,3448
2023-01-06T13:33:54.360Z,3312
2023-01-06T13:34:34.876Z,3276
2023-01-06T13:35:15.423Z,3100
2023-01-06T13:35:56.007Z,2960
2023-01-06T13:36:36.586Z,2856
2023-01-06T13:37:17.203Z,2764
2023-01-06T13:37:58.630Z,2804
2023-01-06T13:41:58.139Z,3272
2023-01-06T13:42:38.714Z,3176
2023-01-06T13:43:19.240Z,3248
2023-01-06T13:43:59.777Z,3172
2023-01-06T13:44:40.300Z,2908
2023-01-06T13:45:20.805Z,2808
2023-01-06T13:46:01.450Z,2772
2023-01-06T13:46:41.886Z,2660
2023-01-06T13:47:22.378Z,2636
2023-01-06T13:48:02.918Z,2612
2023-01-06T13:53:28.243Z,2416
2023-01-06T13:54:08.915Z,2440
2023-01-06T13:54:49.329Z,2556
2023-01-06T13:55:29.881Z,2668
2023-01-06T13:56:10.417Z,2720
2023-01-06T13:56:50.966Z,2848
2023-01-06T13:57:31.539Z,2972
2023-01-06T13:58:12.059Z,2920
2023-01-06T13:58:52.586Z,2916
2023-01-06T13:59:33.103Z,2992
2023-01-06T14:05:37.957Z,3288
2023-01-06T14:06:18.510Z,3184
2023-01-06T14:06:59.549Z,3116
2023-01-06T14:07:40.097Z,3140
2023-01-06T14:08:20.614Z,3164
2023-01-06T14:09:01.184Z,3132
2023-01-06T14:09:41.802Z,3000
2023-01-06T14:10:22.207Z,2804
2023-01-06T14:11:02.760Z,2688
2023-01-06T14:17:48.217Z,2216
2023-01-06T14:18:28.972Z,2128
2023-01-06T14:19:09.266Z,2108
2023-01-06T14:19:49.806Z,2112
2023-01-06T14:20:30.372Z,2092
2023-01-06T14:21:11.817Z,2152
2023-01-06T14:27:58.184Z,2240
2023-01-06T14:28:38.610Z,2224
2023-01-06T14:29:19.131Z,2124
2023-01-06T14:29:59.661Z,2024
2023-01-06T14:30:40.218Z,1880
2023-01-06T14:31:20.818Z,1752
2023-01-06T14:33:40.053Z,1620
2023-01-06T14:34:20.571Z,1656
2023-01-06T14:35:01.942Z,1684
2023-01-06T14:35:43.553Z,1568
2023-01-06T14:37:42.944Z,1596
2023-01-06T14:38:23.473Z,1684
2023-01-06T14:39:04.003Z,1756
2023-01-06T14:39:45.396Z,1780
2023-01-06T14:40:26.149Z,1752
2023-01-06T14:41:06.481Z,1700
2023-01-06T14:41:47.015Z,1648
2023-01-06T14:42:27.579Z,1576
2023-01-06T14:47:13.104Z,1456
2023-01-06T14:47:53.643Z,1492
2023-01-06T14:48:35.166Z,1492
2023-01-06T14:49:15.667Z,1460
2023-01-06T14:52:47.558Z,1396
2023-01-06T14:53:28.210Z,1420
2023-01-06T14:54:08.725Z,1472
2023-01-06T14:54:50.994Z,1516
2023-01-06T14:57:20.865Z,1412
2023-01-06T14:58:01.314Z,1400
2023-01-06T14:58:41.840Z,1344
2023-01-06T14:59:22.364Z,1296
2023-01-06T15:00:02.892Z,1272
2023-01-06T15:00:44.270Z,1244
2023-01-06T15:03:02.985Z,1180
2023-01-06T15:03:43.462Z,1108
2023-01-06T15:04:23.998Z,1080
2023-01-06T15:05:06.209Z,1108
2023-01-06T15:05:45.075Z,1096
2023-01-06T15:06:25.597Z,1056
2023-01-06T15:07:06.144Z,1048
2023-01-06T15:07:46.634Z,1044
2023-01-06T15:08:27.165Z,1024
2023-01-06T15:09:07.663Z,1004
2023-01-06T15:16:29.828Z,760
2023-01-06T15:17:10.357Z,732
2023-01-06T15:17:50.892Z,708
2023-01-06T15:18:31.423Z,684
2023-01-06T15:19:11.916Z,652
2023-01-06T15:19:52.444Z,632
2023-01-06T15:20:32.972Z,616
2023-01-06T15:21:13.650Z,612
2023-01-06T15:21:54.041Z,596
2023-01-06T15:22:34.571Z,564
2023-01-06T15:27:59.558Z,420
2023-01-06T15:28:39.958Z,408
2023-01-06T15:29:20.487Z,384
2023-01-06T15:30:01.010Z,360
2023-01-06T15:30:42.166Z,340
2023-01-06T15:31:23.618Z,320
2023-01-06T15:32:04.126Z,308
2023-01-06T15:32:44.637Z,296
2023-01-06T15:36:03.800Z,240
2023-01-06T15:36:44.311Z,232
2023-01-06T15:37:24.999Z,220
2023-01-06T15:38:05.499Z,208
2023-01-06T15:38:46.049Z,200
2023-01-06T15:39:26.576Z,192
2023-01-06T15:40:07.099Z,188
2023-01-06T15:40:47.615Z,176
2023-01-06T15:41:28.210Z,172
2023-01-06T15:42:10.588Z,164
2023-01-06T15:47:33.610Z,108
2023-01-06T15:48:14.160Z,104
2023-01-06T15:48:54.721Z,100
2023-01-06T15:49:36.214Z,92
2023-01-06T15:50:16.748Z,88
2023-01-06T15:50:57.285Z,80
2023-01-06T15:51:37.795Z,76
2023-01-06T15:52:18.295Z,72
2023-01-06T15:52:58.849Z,64
2023-01-06T15:59:03.769Z,32
2023-01-06T15:59:44.163Z,28
2023-01-06T16:00:24.715Z,24
2023-01-06T16:01:05.314Z,24
2023-01-06T16:01:45.854Z,24
2023-01-06T16:02:26.475Z,20
2023-01-06T16:03:06.965Z,20
2023-01-06T16:03:47.468Z,16
2023-01-06T16:04:28.053Z,12
2023-01-06T16:05:08.661Z,16
2023-01-06T16:11:53.947Z,4
2023-01-06T16:12:34.466Z,4
2023-01-06T16:13:14.963Z,4
2023-01-06T16:13:55.517Z,0
2023-01-06T16:14:36.197Z,4
2023-01-06T16:15:16.633Z,4
2023-01-06T16:15:57.172Z,4
2023-01-06T16:16:37.680Z,4
2023-01-06T16:17:18.217Z,4
2023-01-06T16:17:58.730Z,0
2023-01-06T16:24:43.976Z,0
2023-01-06T16:25:24.510Z,0
2023-01-06T16:26:05.037Z,0
2023-01-06T16:26:45.623Z,0